New Braunfels, TX

2:30 PM CDT on September 21, 2014 (GMT -0500)
Preiss Heights | Change Station
CLOSE
Current Station
Personal Weather Station
Location: New Braunfels, TX
Elevation: 690 ft
Nearby Weather Stations

Elev 690 ft 29.74 °N, 98.12 °W | Updated 7 seconds ago

Mostly Cloudy
Mostly Cloudy
87.2 °F
Feels Like 94 °F
N
0.0
Wind Variable Wind from NE
Gusts 0.0 mph

Today
High -- | Low -- °F
--% Chance of Precip.
Yesterday
High -- | Low -- °F
Precip. -- in
7:20 AM 7:30 PM
Waning Crescent, 6% visible
Pressure 30.00 in
Visibility 10.0 miles
Clouds Scattered Clouds 4200 ft
Mostly Cloudy 5000 ft
Mostly Cloudy 6500 ft
Heat Index 94 °F
Dew Point 72 °F
Humidity 61%
Rainfall 0.00 in
Snow Depth Not available.
UV 5 out of 12
Pollen 9.80 out of 12
Ozone Good
PM2.5 Good
Flu Activity Not available.
METAR KBAZ 211851Z 07008KT 10SM SCT042 BKN050 BKN065 32/19 A3003 RMK AO2 SLP158 T03170194

More Conditions Fewer Conditions

Pressure 30.00 in
Visibility 10.0 miles
Clouds Scattered Clouds 4200 ft
Mostly Cloudy 5000 ft
Mostly Cloudy 6500 ft
Heat Index 94 °F
Dew Point 72 °F
Humidity 61%
Rainfall 0.00 in
Snow Depth Not available.
UV 5 out of 12
Pollen 9.80 out of 12
Ozone Good
PM2.5 Good
Flu Activity Not available.
METAR KBAZ 211851Z 07008KT 10SM SCT042 BKN050 BKN065 32/19 A3003 RMK AO2 SLP158 T03170194

More Conditions Fewer Conditions

10-Day Weather Forecast

Almanac

Astronomy

Sep. 21, 2014 Rise Set
Actual Time 7:20 AM CDT 7:30 PM CDT
Civil Twilight 6:56 AM CDT 7:54 PM CDT
Nautical Twilight 6:28 AM CDT 8:21 PM CDT
Astronomical Twilight 6:00 AM CDT 8:49 PM CDT
Moon 5:03 AM CDT 6:00 PM CDT
Length of Visible Light 12h 57m
Length of Day
12h 09m
Tomorrow will be 1m 47s shorter.
Waning Crescent, 6% of the Moon is Illuminated
Today
Waning Crescent
Sep 24
New
Oct 1
First Quarter
Oct 8
Full
Oct 15
Last Quarter

Today's Extremes

State Highs State Lows

Community

WunderPhotos

Upload Photos

1,755,232 photos uploaded!

Nearby

Air Quality

  Air Quality AQ Index Pollutant
Yesterday Good
PM2.5
Yesterday Good
OZONE
Current Good
OZONE
Current Good
PM2.5
Sunday Good
OZONE
Sunday Good
PM10
Monday Moderate
OZONE
Monday Good
PM10
Tuesday Moderate
OZONE
Tuesday Good
PM10

Snow Depth

Station Depth Elevation
No new snow has been reported.

Earthquake Activity

City Distance Mag. Time & Date
No recent earthquake activity has been reported nearby.
Minimum magnitude displayed is 2.5.

Coastal Water Temperatures

Place Temperature
No Stations Reporting

Nearby Weather Stations